Latest Weather Observations for Dennes Point

IDT60901

Issued at 9:25 am EST Tuesday 2 September 2014 (issued every 10 minutes, with the page automatically refreshed every 10 minutes)

About weather observations | Map of Hobart area stations | Latest observations for Hobart area | Other Formats
Station Details ID: 094255 Name: DENNES POINT Lat: -43.06 Lon: 147.36 Height: 5.67 m
Data from the previous 72 hours. | See also: Recent months at Dennes Point
Date/Time
EST
Tmp

°C
App
Tmp
°C
Dew
Point
°C
Rel
Hum
%
Delta-T

°C
Wind Press
QNH
hPa
Press
MSL
hPa
Rain
since
9 am
mm
Dir
 
Spd
km/h
Gust
km/h
Spd
kts
Gust
kts
02/09:00am 10.0 5.2 4.4 68 2.5 W 19 24 10 13 1017.3 1017.3 7.2
02/08:30am 8.9 4.5 2.7 65 2.6 WSW 15 20 8 11 1017.3 1017.3 7.2
02/08:00am 8.3 4.0 3.0 69 2.2 W 15 17 8 9 1017.1 1017.1 7.2
02/07:30am 7.4 4.5 2.7 72 2.0 SW 7 9 4 5 1016.9 1016.9 7.2
02/07:00am 7.3 3.2 2.4 71 2.0 W 13 17 7 9 1016.6 1016.6 7.2
02/06:30am 7.3 2.6 3.4 76 1.7 W 17 19 9 10 1016.2 1016.2 7.2
02/06:00am 7.4 2.3 3.3 75 1.7 WSW 19 22 10 12 1015.8 1015.8 7.2
02/05:30am 6.7 3.1 2.8 76 1.6 SSW 11 17 6 9 1015.4 1015.4 7.2
02/05:00am 7.4 3.1 3.3 75 1.7 SW 15 22 8 12 1014.9 1014.9 7.2
02/04:30am 7.1 3.2 3.5 78 1.5 SW 13 19 7 10 1014.4 1014.4 7.2
02/04:00am 6.8 3.4 3.8 81 1.3 SSW 11 15 6 8 1014.1 1014.1 7.2
02/03:30am 6.9 3.6 4.4 84 1.1 SSW 11 17 6 9 1013.9 1013.9 7.2
02/03:00am 7.0 3.2 4.1 82 1.2 SSW 13 17 7 9 1013.6 1013.6 7.2
02/02:30am 7.2 4.3 4.7 84 1.1 SSW 9 13 5 7 1013.3 1013.3 7.2
02/02:00am 6.4 3.1 4.4 87 0.9 SSW 11 13 6 7 1013.2 1013.2 7.2
02/01:30am 7.1 3.7 4.2 82 1.3 SSW 11 15 6 8 1013.1 1013.1 7.2
02/01:00am 7.6 3.9 4.2 79 1.5 SW 13 19 7 10 1012.9 1012.9 7.2
02/12:30am 7.0 3.9 3.8 80 1.4 SSW 9 15 5 8 1012.5 1012.5 7.2
02/12:00am 7.3 4.3 4.1 80 1.4 SW 9 11 5 6 1012.2 1012.2 7.2
 
Date/Time
EST
Tmp

°C
App
Tmp
°C
Dew
Point
°C
Rel
Hum
%
Delta-T

°C
Wind Press
QNH
hPa
Press
MSL
hPa
Rain
since
9 am
mm
Dir
 
Spd
km/h
Gust
km/h
Spd
kts
Gust
kts
01/11:30pm 6.5 3.4 3.5 81 1.3 SSW 9 13 5 7 1011.9 1011.9 7.2
01/11:00pm 8.3 2.9 4.3 76 1.7 SW 22 28 12 15 1011.7 1011.7 7.2
01/10:30pm 7.9 5.0 4.5 79 1.5 S 9 20 5 11 1011.4 1011.4 7.2
01/10:00pm 8.5 5.0 5.4 81 1.4 SSW 13 22 7 12 1011.1 1011.1 7.0
01/09:30pm 8.9 4.3 5.5 79 1.5 SW 19 26 10 14 1010.7 1010.7 7.0
01/09:00pm 7.6 4.8 5.1 84 1.1 SW 9 13 5 7 1010.2 1010.2 7.0
01/08:30pm 8.1 5.3 5.2 82 1.3 SSW 9 13 5 7 1009.6 1009.6 7.0
01/08:00pm 8.4 5.2 5.3 81 1.4 SSW 11 15 6 8 1009.1 1009.1 7.0
01/07:30pm 8.5 5.0 5.3 80 1.4 SSW 13 19 7 10 1008.7 1008.7 7.0
01/07:00pm 8.4 5.1 6.2 86 1.0 SW 13 19 7 10 1008.3 1008.3 7.0
01/06:30pm 8.7 4.3 6.7 87 0.9 SSW 19 33 10 18 1008.0 1008.0 7.0
01/06:00pm 9.0 5.8 6.8 86 1.0 SSW 13 20 7 11 1007.3 1007.3 6.8
01/05:30pm 9.1 5.5 6.9 86 1.0 SSW 15 22 8 12 1006.5 1006.5 6.8
01/05:00pm 9.1 5.6 7.2 88 0.9 SSW 15 24 8 13 1005.8 1005.8 6.6
01/04:30pm 9.1 6.1 7.7 91 0.7 SSW 13 20 7 11 1005.3 1005.3 6.6
01/04:00pm 9.1 5.0 8.0 93 0.5 SSW 19 33 10 18 1004.7 1004.7 6.6
01/03:30pm 9.4 5.7 7.8 90 0.8 SSW 17 28 9 15 1004.1 1004.1 5.8
01/03:00pm 9.5 5.8 8.1 91 0.7 SW 17 26 9 14 1003.7 1003.7 4.8
01/02:30pm 9.5 4.8 7.9 90 0.8 SSW 22 32 12 17 1003.1 1003.1 4.0
01/02:00pm 9.8 5.3 8.6 92 0.6 SSW 22 33 12 18 1002.6 1002.6 3.4
01/01:30pm 10.3 6.5 8.9 91 0.7 SW 19 39 10 21 1002.3 1002.3 2.8
01/01:00pm 10.1 5.3 9.0 93 0.5 SW 24 35 13 19 1001.8 1001.9 1.8
01/12:30pm 11.8 6.5 10.0 89 0.9 SSW 28 41 15 22 1001.3 1001.4 0.0
01/12:00pm 13.1 9.2 9.5 79 1.8 SSW 20 30 11 16 1000.8 1000.9 0.0
01/11:30am 13.9 11.1 8.7 71 2.6 SSW 13 20 7 11 1000.9 1001.0 0.0
01/11:00am 14.2 12.2 8.8 70 2.7 WNW 9 17 5 9 1001.1 1001.2 0.0
01/10:30am 14.4 10.0 9.0 70 2.7 NNE 22 28 12 15 1000.9 1001.0 0.0
01/10:00am 13.9 8.8 9.1 73 2.5 NNE 26 30 14 16 1001.5 1001.6 0.0
01/09:30am 14.6 9.7 8.5 67 3.1 NNE 24 30 13 16 1001.8 1001.9 0.0
01/09:00am 14.1 8.2 8.9 71 2.6 NNE 30 35 16 19 1002.4 1002.4 0.0
01/08:30am 13.9 9.5 9.1 73 2.4 N 22 30 12 16 1002.5 1002.5 0.0
01/08:00am 13.5 9.8 9.6 77 2.0 N 19 24 10 13 1002.8 1002.8 0.0
01/07:30am 13.4 9.1 9.5 77 2.0 N 22 26 12 14 1003.0 1003.0 0.0
01/07:00am 13.4 10.5 9.5 77 2.0 N 15 22 8 12 1003.3 1003.3 0.0
01/06:30am 13.2 10.3 9.6 79 1.8 N 15 20 8 11 1003.5 1003.5 0.0
01/06:00am 13.0 12.5 9.3 78 1.9 NNW 2 6 1 3 1003.5 1003.5 0.0
01/05:30am 13.2 11.8 9.6 79 1.8 N 7 15 4 8 1003.7 1003.7 0.0
01/05:00am 13.7 10.7 9.2 74 2.3 N 15 22 8 12 1003.9 1003.9 0.0
01/04:30am 13.4 10.0 9.3 76 2.1 N 17 26 9 14 1004.0 1004.0 0.0
01/04:00am 13.1 10.5 9.2 77 2.0 NE 13 20 7 11 1004.1 1004.1 0.0
01/03:30am 13.4 10.4 9.1 75 2.2 NNE 15 22 8 12 1004.6 1004.6 0.0
01/03:00am 13.5 9.7 9.0 74 2.3 NNE 19 26 10 14 1004.9 1004.9 0.0
01/02:30am 13.8 10.3 8.6 71 2.6 NNE 17 26 9 14 1005.2 1005.2 0.0
01/02:00am 13.8 10.8 9.3 74 2.3 NNE 15 20 8 11 1005.7 1005.7 0.0
01/01:30am 13.7 11.0 9.0 73 2.4 NNE 13 17 7 9 1006.3 1006.3 0.0
01/01:00am 14.4 10.5 8.6 68 2.9 N 19 26 10 14 1007.0 1007.0 0.0
01/12:30am 14.5 11.0 8.7 68 2.9 N 17 24 9 13 1007.2 1007.2 0.0
01/12:00am 14.9 10.8 7.7 62 3.6 NNW 19 24 10 13 1007.3 1007.3 0.0
 
Date/Time
EST
Tmp

°C
App
Tmp
°C
Dew
Point
°C
Rel
Hum
%
Delta-T

°C
Wind Press
QNH
hPa
Press
MSL
hPa
Rain
since
9 am
mm
Dir
 
Spd
km/h
Gust
km/h
Spd
kts
Gust
kts
31/11:30pm 14.7 10.7 8.2 65 3.3 NNW 19 28 10 15 1007.6 1007.6 0.0
31/11:00pm 14.4 10.5 8.8 69 2.8 N 19 24 10 13 1007.9 1007.9 0.0
31/10:30pm 14.0 10.6 9.0 72 2.5 NNE 17 22 9 12 1008.1 1008.1 0.0
31/10:00pm 14.1 9.4 9.1 72 2.5 NE 24 30 13 16 1008.6 1008.6 0.0
31/09:30pm 13.9 9.2 9.1 73 2.4 NE 24 30 13 16 1008.7 1008.7 0.0
31/09:00pm 14.7 9.1 8.6 67 3.1 NNE 28 41 15 22 1008.8 1008.8 0.0
31/08:30pm 15.3 8.6 8.3 63 3.5 NNE 33 44 18 24 1009.1 1009.1 0.0
31/08:00pm 15.0 9.1 8.9 67 3.1 NNE 30 35 16 19 1009.4 1009.4 0.0
31/07:30pm 15.0 9.9 9.1 68 3.0 N 26 35 14 19 1009.7 1009.7 0.0
31/07:00pm 14.9 10.6 9.5 70 2.8 N 22 28 12 15 1009.9 1009.9 0.0
31/06:30pm 14.6 10.0 9.8 73 2.5 N 24 30 13 16 1009.9 1009.9 0.0
31/06:00pm 15.5 10.5 9.6 68 3.1 N 26 35 14 19 1009.7 1009.7 0.0
31/05:30pm 15.0 10.2 10.2 73 2.5 NNE 26 32 14 17 1009.8 1009.8 0.0
31/05:00pm 15.6 11.5 10.2 70 2.8 NNE 22 28 12 15 1009.9 1009.9 0.0
31/04:30pm 15.5 14.5 10.3 71 2.7 N 6 7 3 4 1010.2 1010.2 0.0
31/04:00pm 15.9 12.8 10.2 69 3.0 N 17 19 9 10 1010.3 1010.3 0.0
31/03:30pm 15.4 11.7 10.0 70 2.8 NNE 20 22 11 12 1010.6 1010.6 0.0
31/03:00pm 15.4 12.8 9.5 68 3.1 N 13 20 7 11 1010.9 1010.9 0.0
31/02:30pm 15.4 14.1 9.3 67 3.1 N 6 9 3 5 1011.3 1011.3 0.0
31/02:00pm 15.0 13.3 9.8 71 2.7 N 9 11 5 6 1011.6 1011.6 0.0
31/01:30pm 14.6 11.6 9.2 70 2.8 N 15 20 8 11 1011.8 1011.8 0.0
31/01:00pm 14.7 11.2 8.9 68 2.9 N 17 22 9 12 1012.1 1012.1 0.0
31/12:30pm 14.4 11.6 8.6 68 2.9 N 13 17 7 9 1012.6 1012.6 0.0
31/12:00pm 14.3 11.2 8.7 69 2.8 N 15 19 8 10 1013.2 1013.2 0.0
31/11:30am 14.2 10.6 8.4 68 2.9 N 17 20 9 11 1013.7 1013.7 0.0
31/11:00am 14.2 12.6 8.2 67 3.0 ENE 6 9 3 5 1014.0 1014.0 0.0
31/10:30am 13.4 11.6 7.2 66 3.0 N 6 7 3 4 1014.5 1014.5 0.0
31/10:00am 13.1 10.8 7.5 69 2.7 N 9 11 5 6 1014.9 1014.9 0.0
31/09:30am 12.3 10.1 6.4 67 2.8 NE 7 13 4 7 1015.3 1015.3 0.0
31/09:00am 10.7 8.8 4.8 67 2.7 W 4 7 2 4 1015.6 1015.6 0.0
31/08:30am 10.6 9.4 4.5 66 2.7 CALM 0 4 0 2 1015.9 1015.9 0.0
31/08:00am 8.9 7.6 4.1 72 2.1 CALM 0 0 0 0 1016.1 1016.1 0.0
31/07:30am 6.7 3.6 3.7 81 1.3 SSW 9 9 5 5 1016.2 1016.2 0.0
31/07:00am 6.5 3.3 3.3 80 1.3 SSW 9 9 5 5 1016.1 1016.1 0.0
31/06:30am 8.3 6.6 3.9 74 1.9 N 2 6 1 3 1016.1 1016.1 0.0
31/06:00am 7.7 5.1 4.3 79 1.5 W 7 13 4 7 1016.2 1016.2 0.0
31/05:30am 10.3 6.5 5.7 73 2.1 N 15 20 8 11 1016.2 1016.2 0.0
31/05:00am 9.3 6.8 3.9 69 2.4 NNE 6 7 3 4 1016.3 1016.3 0.0
31/04:30am 8.9 7.3 4.3 73 2.0 SE 2 6 1 3 1016.2 1016.2 0.0
31/04:00am 6.9 4.4 4.6 85 1.0 WSW 7 11 4 6 1016.6 1016.6 0.0
31/03:30am 7.5 4.9 3.4 75 1.7 WNW 6 13 3 7 1016.8 1016.8 0.0
31/03:00am 7.9 5.6 4.7 80 1.4 SW 6 9 3 5 1017.2 1017.2 0.0
31/02:30am 8.4 6.4 4.2 75 1.8 ENE 4 6 2 3 1017.5 1017.5 0.0
31/02:00am 7.6 4.8 5.2 85 1.1 SW 9 13 5 7 1018.2 1018.2 0.0
31/01:30am 11.1 7.7 5.8 70 2.5 N 13 19 7 10 1018.1 1018.1 0.0
31/01:00am 11.6 6.9 6.1 69 2.6 N 20 26 11 14 1018.6 1018.6 0.0
31/12:30am 11.5 5.8 6.6 72 2.3 N 26 32 14 17 1019.1 1019.1 0.0
31/12:00am 11.7 6.0 6.8 72 2.3 N 26 35 14 19 1019.2 1019.2 0.0
 
Date/Time
EST
Tmp

°C
App
Tmp
°C
Dew
Point
°C
Rel
Hum
%
Delta-T

°C
Wind Press
QNH
hPa
Press
MSL
hPa
Rain
since
9 am
mm
Dir
 
Spd
km/h
Gust
km/h
Spd
kts
Gust
kts
30/11:30pm 12.0 6.9 7.5 74 2.2 N 24 30 13 16 1019.7 1019.7 0.0
30/11:00pm 12.4 6.9 7.7 73 2.3 N 26 35 14 19 1020.1 1020.1 0.0
30/10:30pm 12.6 7.0 7.1 69 2.7 N 26 35 14 19 1020.5 1020.5 0.0
30/10:00pm 12.5 9.8 7.4 71 2.5 N 11 15 6 8 1021.2 1021.2 0.0
30/09:30pm 12.2 9.4 8.7 79 1.7 NNE 13 17 7 9 1021.6 1021.6 0.0
30/09:00pm 12.4 9.2 8.5 77 1.9 NNE 15 20 8 11 1021.6 1021.6 0.0
30/08:30pm 12.0 8.6 9.0 82 1.5 ENE 17 19 9 10 1021.7 1021.7 0.0
30/08:00pm 12.1 9.5 9.3 83 1.4 NE 13 17 7 9 1021.8 1021.8 0.0
30/07:30pm 12.4 8.0 9.1 80 1.7 NE 22 26 12 14 1021.8 1021.8 0.0
30/07:00pm 12.5 9.1 9.1 80 1.7 NE 17 20 9 11 1021.9 1021.9 0.0
30/06:30pm 12.8 8.1 9.3 79 1.8 NE 24 30 13 16 1021.9 1021.9 0.0
30/06:00pm 13.0 8.7 9.4 79 1.8 ENE 22 26 12 14 1022.1 1022.1 0.0
30/05:30pm 13.4 8.4 9.6 78 1.9 ENE 26 30 14 16 1022.2 1022.2 0.0
30/05:00pm 13.9 10.1 9.9 77 2.1 ENE 20 26 11 14 1022.4 1022.4 0.0
30/04:30pm 14.7 11.3 9.1 69 2.9 NNE 17 19 9 10 1022.5 1022.5 0.0
30/04:00pm 15.4 12.0 9.1 66 3.2 NNE 17 20 9 11 1022.7 1022.7 0.0
30/03:30pm 15.4 12.0 9.3 67 3.1 NNE 17 19 9 10 1022.9 1022.9 0.0
30/03:00pm 15.8 12.4 9.2 65 3.4 NE 17 20 9 11 1023.3 1023.3 0.0
30/02:30pm 15.7 12.7 9.4 66 3.3 NE 15 17 8 9 1023.6 1023.6 0.0
30/02:00pm 15.9 13.8 9.8 67 3.2 ENE 11 15 6 8 1024.0 1024.0 0.0
30/01:30pm 15.5 12.5 9.4 67 3.1 NNE 15 19 8 10 1024.3 1024.3 0.0
30/01:00pm 15.2 11.7 8.9 66 3.2 N 17 19 9 10 1024.7 1024.7 0.0
30/12:30pm 14.9 11.8 8.8 67 3.1 N 15 19 8 10 1025.2 1025.2 0.0
30/12:00pm 14.6 11.1 8.8 68 2.9 NNE 17 20 9 11 1025.6 1025.6 0.0
30/11:30am 13.6 9.4 8.2 70 2.7 NE 20 26 11 14 1026.2 1026.2 0.0
30/11:00am 12.6 8.5 7.9 73 2.3 NNE 19 22 10 12 1026.6 1026.6 0.0
30/10:30am 12.2 8.7 8.9 80 1.6 NE 17 19 9 10 1027.0 1027.0 0.0
30/10:00am 11.6 7.4 8.1 79 1.7 NE 20 24 11 13 1027.3 1027.3 0.0
30/09:30am 10.7 6.6 7.8 82 1.4 NNE 19 22 10 12 1027.7 1027.7 0.0

Latest Capital City Observations: Canberra | Sydney | Melbourne | Brisbane | Adelaide | Perth | Hobart | Darwin

Other Formats:

Comma delimited format used in spreadsheet applications
http://www.bom.gov.au/fwo/IDT60901/IDT60901.94988.axf

JavaScript Object Notation format (JSON) in row-major order
http://www.bom.gov.au/fwo/IDT60901/IDT60901.94988.json